Hood Army Air Field Fort Hood(Killeen) US
ICAO: KHLR
IATA: HLR
Category: Medium
Scheduled Services: No

Elevation: 924 ft
TransAlt. 18000 ft.

Airport Communications:
GRAY APP/DEP:120.075
CLNC DEL:22.54
GND:133.85
RANGE CON:30.45
FORT HOOD FLT FLW:143.1
PMSV GRAY METRO:41.2
TWR:119.65

KHLR Zoom In..

If you have problems with the map follow the link
https://www.worldairports.se/pages/airport.php?
ICAO=KHLR

Runways:

(A) RW 16 length 3701 ft width 144 ft
---- / hdg 158

(B) RW 34 length 3701 ft width 144 ft
---- / hdg 338

Location; KHLR
Day. 21 / Time. 05.58 Zulu
* Altimeter: 30.47
* Temperature: 05° c. 41°f.
* Wind from: 000° Speed 00 kn.
Dewpoint: -02° c.
Visibility: 9 Statute Miles.
Clouds: Scattered 1000 ft.

KHLR 210558Z AUTO 00000KT 9SM SCT100 05/M02 A3047 RMK AO2 SLP319 T00521021 10116 20052 401521003 50002


Wind - Calm.

 
 
jpsmedia worldairports.se 2020   terms of use